sensor_id;sensor_type;location;lat;lon;timestamp;temperature;humidity
52543;DHT22;38449;52.696;6.186;2023-06-14T00:01:06;18.30;86.00
52543;DHT22;38449;52.696;6.186;2023-06-14T00:03:33;18.30;86.00
52543;DHT22;38449;52.696;6.186;2023-06-14T00:05:59;18.30;85.90
52543;DHT22;38449;52.696;6.186;2023-06-14T00:08:26;18.20;85.80
52543;DHT22;38449;52.696;6.186;2023-06-14T00:10:52;18.20;85.90
52543;DHT22;38449;52.696;6.186;2023-06-14T00:13:18;18.10;85.80
52543;DHT22;38449;52.696;6.186;2023-06-14T00:15:45;18.10;86.20
52543;DHT22;38449;52.696;6.186;2023-06-14T00:18:12;18.00;86.20
52543;DHT22;38449;52.696;6.186;2023-06-14T00:20:39;18.00;86.10
52543;DHT22;38449;52.696;6.186;2023-06-14T00:23:05;18.00;86.20
52543;DHT22;38449;52.696;6.186;2023-06-14T00:25:32;17.90;86.10
52543;DHT22;38449;52.696;6.186;2023-06-14T00:27:58;17.90;86.20
52543;DHT22;38449;52.696;6.186;2023-06-14T00:30:25;17.80;86.20
52543;DHT22;38449;52.696;6.186;2023-06-14T00:32:51;17.80;86.20
52543;DHT22;38449;52.696;6.186;2023-06-14T00:35:17;17.80;86.30
52543;DHT22;38449;52.696;6.186;2023-06-14T00:37:44;17.70;86.40
52543;DHT22;38449;52.696;6.186;2023-06-14T00:40:10;17.70;86.50
52543;DHT22;38449;52.696;6.186;2023-06-14T00:42:36;17.60;86.60
52543;DHT22;38449;52.696;6.186;2023-06-14T00:45:03;17.60;86.70
52543;DHT22;38449;52.696;6.186;2023-06-14T00:47:29;17.50;86.80
52543;DHT22;38449;52.696;6.186;2023-06-14T00:49:56;17.50;87.00
52543;DHT22;38449;52.696;6.186;2023-06-14T00:52:23;17.40;87.20
52543;DHT22;38449;52.696;6.186;2023-06-14T00:54:50;17.40;87.30
52543;DHT22;38449;52.696;6.186;2023-06-14T00:57:16;17.30;87.60
52543;DHT22;38449;52.696;6.186;2023-06-14T00:59:44;17.30;87.70
52543;DHT22;38449;52.696;6.186;2023-06-14T01:02:12;17.20;87.80
52543;DHT22;38449;52.696;6.186;2023-06-14T01:04:41;17.10;87.90
52543;DHT22;38449;52.696;6.186;2023-06-14T01:13:31;17.00;88.80
52543;DHT22;38449;52.696;6.186;2023-06-14T01:15:59;16.90;88.80
52543;DHT22;38449;52.696;6.186;2023-06-14T01:18:25;16.90;88.90
52543;DHT22;38449;52.696;6.186;2023-06-14T01:20:52;16.80;89.00
52543;DHT22;38449;52.696;6.186;2023-06-14T01:23:22;16.70;89.50
52543;DHT22;38449;52.696;6.186;2023-06-14T01:25:49;16.70;89.80
52543;DHT22;38449;52.696;6.186;2023-06-14T01:28:20;16.60;89.70
52543;DHT22;38449;52.696;6.186;2023-06-14T01:30:50;16.70;90.00
52543;DHT22;38449;52.696;6.186;2023-06-14T01:33:21;16.60;90.00
52543;DHT22;38449;52.696;6.186;2023-06-14T01:35:49;16.60;90.10
52543;DHT22;38449;52.696;6.186;2023-06-14T01:38:19;16.50;90.10
52543;DHT22;38449;52.696;6.186;2023-06-14T01:40:47;16.50;90.20
52543;DHT22;38449;52.696;6.186;2023-06-14T01:43:15;16.50;90.30
52543;DHT22;38449;52.696;6.186;2023-06-14T01:45:42;16.40;90.30
52543;DHT22;38449;52.696;6.186;2023-06-14T01:48:10;16.40;90.50
52543;DHT22;38449;52.696;6.186;2023-06-14T01:50:36;16.30;90.80
52543;DHT22;38449;52.696;6.186;2023-06-14T01:53:07;16.30;90.60
52543;DHT22;38449;52.696;6.186;2023-06-14T01:55:34;16.20;90.80
52543;DHT22;38449;52.696;6.186;2023-06-14T01:58:04;16.20;90.80
52543;DHT22;38449;52.696;6.186;2023-06-14T02:00:31;16.20;91.00
52543;DHT22;38449;52.696;6.186;2023-06-14T02:02:57;16.20;91.00
52543;DHT22;38449;52.696;6.186;2023-06-14T02:05:24;16.10;91.20
52543;DHT22;38449;52.696;6.186;2023-06-14T02:07:50;16.10;91.20
52543;DHT22;38449;52.696;6.186;2023-06-14T02:10:16;16.10;91.30
52543;DHT22;38449;52.696;6.186;2023-06-14T02:12:43;16.00;91.40
52543;DHT22;38449;52.696;6.186;2023-06-14T02:15:10;16.00;91.50
52543;DHT22;38449;52.696;6.186;2023-06-14T02:17:43;16.00;91.60
52543;DHT22;38449;52.696;6.186;2023-06-14T02:20:10;15.90;91.70
52543;DHT22;38449;52.696;6.186;2023-06-14T02:22:36;15.90;91.80
52543;DHT22;38449;52.696;6.186;2023-06-14T02:25:03;15.80;91.90
52543;DHT22;38449;52.696;6.186;2023-06-14T02:27:29;15.80;92.10
52543;DHT22;38449;52.696;6.186;2023-06-14T02:29:55;15.70;92.10
52543;DHT22;38449;52.696;6.186;2023-06-14T02:32:21;15.80;92.20
52543;DHT22;38449;52.696;6.186;2023-06-14T02:34:48;15.80;92.40
52543;DHT22;38449;52.696;6.186;2023-06-14T02:37:16;15.70;92.30
52543;DHT22;38449;52.696;6.186;2023-06-14T02:39:42;15.70;92.60
52543;DHT22;38449;52.696;6.186;2023-06-14T02:42:09;15.70;92.70
52543;DHT22;38449;52.696;6.186;2023-06-14T02:44:36;15.60;92.70
52543;DHT22;38449;52.696;6.186;2023-06-14T02:47:03;15.70;92.80
52543;DHT22;38449;52.696;6.186;2023-06-14T02:49:30;15.60;93.10
52543;DHT22;38449;52.696;6.186;2023-06-14T02:51:56;15.60;93.10
52543;DHT22;38449;52.696;6.186;2023-06-14T02:54:23;15.50;93.50
52543;DHT22;38449;52.696;6.186;2023-06-14T02:56:49;15.50;93.30
52543;DHT22;38449;52.696;6.186;2023-06-14T02:59:16;15.50;93.30
52543;DHT22;38449;52.696;6.186;2023-06-14T03:01:43;15.40;93.60
52543;DHT22;38449;52.696;6.186;2023-06-14T03:04:09;15.40;93.60
52543;DHT22;38449;52.696;6.186;2023-06-14T03:06:36;15.40;93.90
52543;DHT22;38449;52.696;6.186;2023-06-14T03:09:03;15.40;94.10
52543;DHT22;38449;52.696;6.186;2023-06-14T03:11:35;15.30;94.20
52543;DHT22;38449;52.696;6.186;2023-06-14T03:14:01;15.30;94.40
52543;DHT22;38449;52.696;6.186;2023-06-14T03:16:30;15.20;94.50
52543;DHT22;38449;52.696;6.186;2023-06-14T03:18:57;15.20;95.00
52543;DHT22;38449;52.696;6.186;2023-06-14T03:21:23;15.20;94.80
52543;DHT22;38449;52.696;6.186;2023-06-14T03:23:51;15.20;95.00
52543;DHT22;38449;52.696;6.186;2023-06-14T03:26:17;15.20;95.10
52543;DHT22;38449;52.696;6.186;2023-06-14T03:28:46;15.10;95.10
52543;DHT22;38449;52.696;6.186;2023-06-14T03:31:13;15.10;95.40
52543;DHT22;38449;52.696;6.186;2023-06-14T03:33:40;15.10;95.50
52543;DHT22;38449;52.696;6.186;2023-06-14T03:36:06;15.10;95.60
52543;DHT22;38449;52.696;6.186;2023-06-14T03:38:33;15.10;95.70
52543;DHT22;38449;52.696;6.186;2023-06-14T03:40:59;15.10;95.80
52543;DHT22;38449;52.696;6.186;2023-06-14T03:43:25;15.10;95.90
52543;DHT22;38449;52.696;6.186;2023-06-14T03:45:51;15.10;96.00
52543;DHT22;38449;52.696;6.186;2023-06-14T03:48:18;15.10;96.20
52543;DHT22;38449;52.696;6.186;2023-06-14T03:50:44;15.10;96.20
52543;DHT22;38449;52.696;6.186;2023-06-14T03:53:10;15.20;96.30
52543;DHT22;38449;52.696;6.186;2023-06-14T03:55:37;15.10;96.40
52543;DHT22;38449;52.696;6.186;2023-06-14T03:58:04;15.10;96.50
52543;DHT22;38449;52.696;6.186;2023-06-14T04:00:31;15.10;96.50
52543;DHT22;38449;52.696;6.186;2023-06-14T04:02:58;15.20;96.70
52543;DHT22;38449;52.696;6.186;2023-06-14T04:05:24;15.20;96.80
52543;DHT22;38449;52.696;6.186;2023-06-14T04:07:52;15.30;96.80
52543;DHT22;38449;52.696;6.186;2023-06-14T04:10:21;15.30;96.80
52543;DHT22;38449;52.696;6.186;2023-06-14T04:12:48;15.30;97.00
52543;DHT22;38449;52.696;6.186;2023-06-14T04:15:15;15.20;97.10
52543;DHT22;38449;52.696;6.186;2023-06-14T04:17:41;15.30;97.10
52543;DHT22;38449;52.696;6.186;2023-06-14T04:20:08;15.30;97.10
52543;DHT22;38449;52.696;6.186;2023-06-14T04:22:35;15.40;97.30
52543;DHT22;38449;52.696;6.186;2023-06-14T04:25:02;15.30;97.40
52543;DHT22;38449;52.696;6.186;2023-06-14T04:27:29;15.40;97.40
52543;DHT22;38449;52.696;6.186;2023-06-14T04:29:57;15.40;97.40
52543;DHT22;38449;52.696;6.186;2023-06-14T04:32:24;15.40;97.60
52543;DHT22;38449;52.696;6.186;2023-06-14T04:35:01;15.50;97.70
52543;DHT22;38449;52.696;6.186;2023-06-14T04:37:30;15.50;97.60
52543;DHT22;38449;52.696;6.186;2023-06-14T04:39:56;15.50;97.70
52543;DHT22;38449;52.696;6.186;2023-06-14T04:42:23;15.60;97.70
52543;DHT22;38449;52.696;6.186;2023-06-14T04:44:56;15.60;97.70
52543;DHT22;38449;52.696;6.186;2023-06-14T04:47:23;15.70;97.70
52543;DHT22;38449;52.696;6.186;2023-06-14T04:49:56;15.70;97.80
52543;DHT22;38449;52.696;6.186;2023-06-14T04:52:23;15.80;97.80
52543;DHT22;38449;52.696;6.186;2023-06-14T04:54:52;16.00;97.90
52543;DHT22;38449;52.696;6.186;2023-06-14T04:57:20;16.60;97.60
52543;DHT22;38449;52.696;6.186;2023-06-14T04:59:48;16.90;97.20
52543;DHT22;38449;52.696;6.186;2023-06-14T05:02:14;17.70;96.50
52543;DHT22;38449;52.696;6.186;2023-06-14T05:04:41;18.50;95.80
52543;DHT22;38449;52.696;6.186;2023-06-14T05:07:08;19.20;94.50
52543;DHT22;38449;52.696;6.186;2023-06-14T05:09:35;19.80;94.00
52543;DHT22;38449;52.696;6.186;2023-06-14T05:12:02;20.40;93.20
52543;DHT22;38449;52.696;6.186;2023-06-14T05:14:29;21.10;92.60
52543;DHT22;38449;52.696;6.186;2023-06-14T05:16:55;21.60;92.00
52543;DHT22;38449;52.696;6.186;2023-06-14T05:19:21;21.80;91.50
52543;DHT22;38449;52.696;6.186;2023-06-14T05:21:48;21.90;91.30
52543;DHT22;38449;52.696;6.186;2023-06-14T05:24:14;22.50;91.10
52543;DHT22;38449;52.696;6.186;2023-06-14T05:26:41;23.00;90.40
52543;DHT22;38449;52.696;6.186;2023-06-14T05:29:07;23.10;90.00
52543;DHT22;38449;52.696;6.186;2023-06-14T05:31:33;23.60;90.00
52543;DHT22;38449;52.696;6.186;2023-06-14T05:34:00;24.00;88.70
52543;DHT22;38449;52.696;6.186;2023-06-14T05:36:26;24.20;87.60
52543;DHT22;38449;52.696;6.186;2023-06-14T05:38:54;24.30;87.20
52543;DHT22;38449;52.696;6.186;2023-06-14T05:41:29;24.40;86.80
52543;DHT22;38449;52.696;6.186;2023-06-14T05:43:56;24.40;85.80
52543;DHT22;38449;52.696;6.186;2023-06-14T05:46:24;24.30;86.20
52543;DHT22;38449;52.696;6.186;2023-06-14T05:48:54;24.30;85.60
52543;DHT22;38449;52.696;6.186;2023-06-14T05:51:21;24.40;85.40
52543;DHT22;38449;52.696;6.186;2023-06-14T05:53:48;24.50;85.20
52543;DHT22;38449;52.696;6.186;2023-06-14T05:56:15;24.80;84.50
52543;DHT22;38449;52.696;6.186;2023-06-14T05:58:47;25.00;83.70
52543;DHT22;38449;52.696;6.186;2023-06-14T06:01:14;25.00;84.10
52543;DHT22;38449;52.696;6.186;2023-06-14T06:03:41;25.50;83.70
52543;DHT22;38449;52.696;6.186;2023-06-14T06:06:12;25.90;83.50
52543;DHT22;38449;52.696;6.186;2023-06-14T06:08:38;25.70;82.10
52543;DHT22;38449;52.696;6.186;2023-06-14T06:11:05;25.90;82.40
52543;DHT22;38449;52.696;6.186;2023-06-14T06:13:31;26.00;82.00
52543;DHT22;38449;52.696;6.186;2023-06-14T06:15:58;26.10;81.60
52543;DHT22;38449;52.696;6.186;2023-06-14T06:18:25;25.90;81.20
52543;DHT22;38449;52.696;6.186;2023-06-14T06:20:51;26.10;80.50
52543;DHT22;38449;52.696;6.186;2023-06-14T06:23:17;26.20;80.60
52543;DHT22;38449;52.696;6.186;2023-06-14T06:25:43;25.90;79.60
52543;DHT22;38449;52.696;6.186;2023-06-14T06:28:10;25.90;81.00
52543;DHT22;38449;52.696;6.186;2023-06-14T06:30:37;26.40;81.30
52543;DHT22;38449;52.696;6.186;2023-06-14T06:33:03;26.70;79.90
52543;DHT22;38449;52.696;6.186;2023-06-14T06:35:29;27.10;80.00
52543;DHT22;38449;52.696;6.186;2023-06-14T06:37:57;27.00;78.70
52543;DHT22;38449;52.696;6.186;2023-06-14T06:40:23;26.90;78.90
52543;DHT22;38449;52.696;6.186;2023-06-14T06:42:49;27.40;78.90
52543;DHT22;38449;52.696;6.186;2023-06-14T06:45:16;27.10;77.90
52543;DHT22;38449;52.696;6.186;2023-06-14T06:47:42;27.20;78.40
52543;DHT22;38449;52.696;6.186;2023-06-14T06:50:08;27.10;78.30
52543;DHT22;38449;52.696;6.186;2023-06-14T06:52:35;27.50;78.50
52543;DHT22;38449;52.696;6.186;2023-06-14T06:55:01;27.50;78.20
52543;DHT22;38449;52.696;6.186;2023-06-14T06:57:28;26.90;77.50
52543;DHT22;38449;52.696;6.186;2023-06-14T06:59:55;26.70;77.90
52543;DHT22;38449;52.696;6.186;2023-06-14T07:02:21;25.80;78.50
52543;DHT22;38449;52.696;6.186;2023-06-14T07:04:48;25.40;79.50
52543;DHT22;38449;52.696;6.186;2023-06-14T07:07:14;25.20;79.80
52543;DHT22;38449;52.696;6.186;2023-06-14T07:09:40;24.80;79.90
52543;DHT22;38449;52.696;6.186;2023-06-14T07:12:08;24.50;80.40
52543;DHT22;38449;52.696;6.186;2023-06-14T07:14:34;24.30;80.70
52543;DHT22;38449;52.696;6.186;2023-06-14T07:17:00;24.50;81.10
52543;DHT22;38449;52.696;6.186;2023-06-14T07:19:26;24.40;81.00
52543;DHT22;38449;52.696;6.186;2023-06-14T07:21:53;24.30;80.70
52543;DHT22;38449;52.696;6.186;2023-06-14T07:24:19;24.30;80.80
52543;DHT22;38449;52.696;6.186;2023-06-14T07:26:47;24.10;81.20
52543;DHT22;38449;52.696;6.186;2023-06-14T07:29:15;24.10;81.20
52543;DHT22;38449;52.696;6.186;2023-06-14T07:31:42;24.10;81.40
52543;DHT22;38449;52.696;6.186;2023-06-14T07:34:09;24.20;81.40
52543;DHT22;38449;52.696;6.186;2023-06-14T07:36:35;24.50;81.20
52543;DHT22;38449;52.696;6.186;2023-06-14T07:39:03;24.70;80.80
52543;DHT22;38449;52.696;6.186;2023-06-14T07:41:29;24.60;80.30
52543;DHT22;38449;52.696;6.186;2023-06-14T07:43:56;24.70;80.20
52543;DHT22;38449;52.696;6.186;2023-06-14T07:46:22;24.80;80.40
52543;DHT22;38449;52.696;6.186;2023-06-14T07:48:48;24.80;80.20
52543;DHT22;38449;52.696;6.186;2023-06-14T07:51:15;24.70;80.40
52543;DHT22;38449;52.696;6.186;2023-06-14T07:53:41;24.70;79.70
52543;DHT22;38449;52.696;6.186;2023-06-14T07:56:08;24.80;79.90
52543;DHT22;38449;52.696;6.186;2023-06-14T07:58:34;24.80;80.20
52543;DHT22;38449;52.696;6.186;2023-06-14T08:01:00;24.80;80.00
52543;DHT22;38449;52.696;6.186;2023-06-14T08:03:32;24.70;80.10
52543;DHT22;38449;52.696;6.186;2023-06-14T08:05:58;24.70;79.50
52543;DHT22;38449;52.696;6.186;2023-06-14T08:08:24;24.50;79.70
52543;DHT22;38449;52.696;6.186;2023-06-14T08:10:51;24.50;79.90
52543;DHT22;38449;52.696;6.186;2023-06-14T08:13:17;24.70;79.80
52543;DHT22;38449;52.696;6.186;2023-06-14T08:15:43;24.70;79.40
52543;DHT22;38449;52.696;6.186;2023-06-14T08:18:10;24.60;79.80
52543;DHT22;38449;52.696;6.186;2023-06-14T08:20:36;24.60;79.40
52543;DHT22;38449;52.696;6.186;2023-06-14T08:23:03;24.90;79.00
52543;DHT22;38449;52.696;6.186;2023-06-14T08:25:30;24.60;78.90
52543;DHT22;38449;52.696;6.186;2023-06-14T08:27:58;24.80;79.20
52543;DHT22;38449;52.696;6.186;2023-06-14T08:30:25;24.80;78.20
52543;DHT22;38449;52.696;6.186;2023-06-14T08:32:51;24.60;78.70
52543;DHT22;38449;52.696;6.186;2023-06-14T08:35:18;24.80;79.20
52543;DHT22;38449;52.696;6.186;2023-06-14T08:37:44;24.90;79.20
52543;DHT22;38449;52.696;6.186;2023-06-14T08:40:22;25.00;78.90
52543;DHT22;38449;52.696;6.186;2023-06-14T08:42:54;25.20;78.10
52543;DHT22;38449;52.696;6.186;2023-06-14T08:45:21;25.10;76.70
52543;DHT22;38449;52.696;6.186;2023-06-14T08:47:48;25.00;76.80
52543;DHT22;38449;52.696;6.186;2023-06-14T08:50:24;25.10;76.80
52543;DHT22;38449;52.696;6.186;2023-06-14T08:52:58;25.00;76.70
52543;DHT22;38449;52.696;6.186;2023-06-14T08:55:29;25.10;76.70
52543;DHT22;38449;52.696;6.186;2023-06-14T08:57:56;25.00;77.10
52543;DHT22;38449;52.696;6.186;2023-06-14T09:00:25;24.80;76.90
52543;DHT22;38449;52.696;6.186;2023-06-14T09:02:52;24.80;76.80
52543;DHT22;38449;52.696;6.186;2023-06-14T09:05:24;25.00;77.40
52543;DHT22;38449;52.696;6.186;2023-06-14T09:07:50;25.10;77.50
52543;DHT22;38449;52.696;6.186;2023-06-14T09:10:17;25.20;77.30
52543;DHT22;38449;52.696;6.186;2023-06-14T09:12:43;25.10;77.50
52543;DHT22;38449;52.696;6.186;2023-06-14T09:15:10;25.20;77.70
52543;DHT22;38449;52.696;6.186;2023-06-14T09:17:36;25.20;77.80
52543;DHT22;38449;52.696;6.186;2023-06-14T09:20:04;25.30;77.50
52543;DHT22;38449;52.696;6.186;2023-06-14T09:22:35;25.40;76.40
52543;DHT22;38449;52.696;6.186;2023-06-14T09:25:02;25.30;76.90
52543;DHT22;38449;52.696;6.186;2023-06-14T09:27:29;25.30;76.70
52543;DHT22;38449;52.696;6.186;2023-06-14T09:29:55;25.50;77.30
52543;DHT22;38449;52.696;6.186;2023-06-14T09:32:22;25.40;76.20
52543;DHT22;38449;52.696;6.186;2023-06-14T09:34:48;25.60;75.90
52543;DHT22;38449;52.696;6.186;2023-06-14T09:37:31;25.40;75.10
52543;DHT22;38449;52.696;6.186;2023-06-14T09:39:58;25.20;74.60
52543;DHT22;38449;52.696;6.186;2023-06-14T09:42:24;24.90;74.80
52543;DHT22;38449;52.696;6.186;2023-06-14T09:44:53;24.60;75.20
52543;DHT22;38449;52.696;6.186;2023-06-14T09:47:20;24.50;76.10
52543;DHT22;38449;52.696;6.186;2023-06-14T09:49:48;24.70;76.50
52543;DHT22;38449;52.696;6.186;2023-06-14T09:52:18;24.80;76.30
52543;DHT22;38449;52.696;6.186;2023-06-14T09:54:46;24.90;75.60
52543;DHT22;38449;52.696;6.186;2023-06-14T09:57:15;25.10;75.90
52543;DHT22;38449;52.696;6.186;2023-06-14T09:59:43;25.20;75.30
52543;DHT22;38449;52.696;6.186;2023-06-14T10:02:24;25.30;75.60
52543;DHT22;38449;52.696;6.186;2023-06-14T10:05:01;25.30;75.40
52543;DHT22;38449;52.696;6.186;2023-06-14T10:07:33;25.30;75.00
52543;DHT22;38449;52.696;6.186;2023-06-14T10:10:01;25.20;73.90
52543;DHT22;38449;52.696;6.186;2023-06-14T10:12:28;25.20;74.40
52543;DHT22;38449;52.696;6.186;2023-06-14T10:14:55;25.50;75.20
52543;DHT22;38449;52.696;6.186;2023-06-14T10:17:32;25.60;75.00
52543;DHT22;38449;52.696;6.186;2023-06-14T10:23:03;25.40;73.10
52543;DHT22;38449;52.696;6.186;2023-06-14T10:25:33;25.30;73.50
52543;DHT22;38449;52.696;6.186;2023-06-14T10:28:17;25.10;73.90
52543;DHT22;38449;52.696;6.186;2023-06-14T10:31:02;25.20;73.80
52543;DHT22;38449;52.696;6.186;2023-06-14T10:33:33;25.20;73.50
52543;DHT22;38449;52.696;6.186;2023-06-14T10:41:37;25.30;74.90
52543;DHT22;38449;52.696;6.186;2023-06-14T10:46:55;25.30;72.70
52543;DHT22;38449;52.696;6.186;2023-06-14T10:49:45;25.40;74.00
52543;DHT22;38449;52.696;6.186;2023-06-14T10:52:15;25.40;72.30
52543;DHT22;38449;52.696;6.186;2023-06-14T10:57:38;25.40;72.30
52543;DHT22;38449;52.696;6.186;2023-06-14T11:00:06;25.40;72.40
52543;DHT22;38449;52.696;6.186;2023-06-14T11:03:10;25.40;72.20
52543;DHT22;38449;52.696;6.186;2023-06-14T11:05:56;25.60;71.80
52543;DHT22;38449;52.696;6.186;2023-06-14T11:11:12;25.80;71.00
52543;DHT22;38449;52.696;6.186;2023-06-14T11:13:41;25.80;72.20
52543;DHT22;38449;52.696;6.186;2023-06-14T11:16:12;25.80;71.30
52543;DHT22;38449;52.696;6.186;2023-06-14T11:18:39;25.90;72.10
52543;DHT22;38449;52.696;6.186;2023-06-14T11:21:05;25.90;71.20
52543;DHT22;38449;52.696;6.186;2023-06-14T11:23:32;25.90;71.20
52543;DHT22;38449;52.696;6.186;2023-06-14T11:25:58;25.80;71.60
52543;DHT22;38449;52.696;6.186;2023-06-14T11:28:24;25.90;72.30
52543;DHT22;38449;52.696;6.186;2023-06-14T11:31:01;26.00;72.00
52543;DHT22;38449;52.696;6.186;2023-06-14T11:33:27;26.10;71.20
52543;DHT22;38449;52.696;6.186;2023-06-14T11:35:53;26.00;71.40
52543;DHT22;38449;52.696;6.186;2023-06-14T11:38:20;26.00;71.30
52543;DHT22;38449;52.696;6.186;2023-06-14T11:40:46;26.00;71.70
52543;DHT22;38449;52.696;6.186;2023-06-14T11:43:12;26.10;70.90
52543;DHT22;38449;52.696;6.186;2023-06-14T11:45:40;25.80;70.40
52543;DHT22;38449;52.696;6.186;2023-06-14T11:48:06;26.00;70.80
52543;DHT22;38449;52.696;6.186;2023-06-14T11:50:37;26.00;71.00
52543;DHT22;38449;52.696;6.186;2023-06-14T11:53:04;26.00;69.50
52543;DHT22;38449;52.696;6.186;2023-06-14T11:55:38;26.10;70.00
52543;DHT22;38449;52.696;6.186;2023-06-14T11:58:05;26.10;69.90
52543;DHT22;38449;52.696;6.186;2023-06-14T12:00:31;26.10;70.60
52543;DHT22;38449;52.696;6.186;2023-06-14T12:02:58;26.00;70.30
52543;DHT22;38449;52.696;6.186;2023-06-14T12:05:25;25.80;69.90
52543;DHT22;38449;52.696;6.186;2023-06-14T12:08:03;25.70;70.20
52543;DHT22;38449;52.696;6.186;2023-06-14T12:10:29;25.60;71.20
52543;DHT22;38449;52.696;6.186;2023-06-14T12:12:59;25.60;71.20
52543;DHT22;38449;52.696;6.186;2023-06-14T12:15:28;25.80;70.90
52543;DHT22;38449;52.696;6.186;2023-06-14T12:17:58;25.90;70.40
52543;DHT22;38449;52.696;6.186;2023-06-14T12:20:29;25.90;70.20
52543;DHT22;38449;52.696;6.186;2023-06-14T12:22:58;26.00;69.90
52543;DHT22;38449;52.696;6.186;2023-06-14T12:25:35;25.90;70.70
52543;DHT22;38449;52.696;6.186;2023-06-14T12:28:09;25.90;71.10
52543;DHT22;38449;52.696;6.186;2023-06-14T12:30:37;26.00;70.50
52543;DHT22;38449;52.696;6.186;2023-06-14T12:33:04;25.80;70.90
52543;DHT22;38449;52.696;6.186;2023-06-14T12:35:31;25.80;71.90
52543;DHT22;38449;52.696;6.186;2023-06-14T12:37:58;25.90;71.90
52543;DHT22;38449;52.696;6.186;2023-06-14T12:40:24;26.00;72.20
52543;DHT22;38449;52.696;6.186;2023-06-14T12:42:50;26.20;71.80
52543;DHT22;38449;52.696;6.186;2023-06-14T12:45:16;26.00;71.40
52543;DHT22;38449;52.696;6.186;2023-06-14T12:47:43;25.90;71.90
52543;DHT22;38449;52.696;6.186;2023-06-14T12:50:09;26.10;72.00
52543;DHT22;38449;52.696;6.186;2023-06-14T12:52:36;26.00;72.00
52543;DHT22;38449;52.696;6.186;2023-06-14T12:55:05;26.00;72.50
52543;DHT22;38449;52.696;6.186;2023-06-14T12:57:32;26.00;72.90
52543;DHT22;38449;52.696;6.186;2023-06-14T13:00:00;26.10;72.90
52543;DHT22;38449;52.696;6.186;2023-06-14T13:02:26;26.10;72.30
52543;DHT22;38449;52.696;6.186;2023-06-14T13:04:53;26.10;72.20
52543;DHT22;38449;52.696;6.186;2023-06-14T13:07:19;26.10;72.30
52543;DHT22;38449;52.696;6.186;2023-06-14T13:09:45;26.20;72.90
52543;DHT22;38449;52.696;6.186;2023-06-14T13:12:12;26.30;72.70
52543;DHT22;38449;52.696;6.186;2023-06-14T13:14:39;26.20;72.50
52543;DHT22;38449;52.696;6.186;2023-06-14T13:17:10;26.30;72.70
52543;DHT22;38449;52.696;6.186;2023-06-14T13:19:36;26.40;73.30
52543;DHT22;38449;52.696;6.186;2023-06-14T13:22:03;26.50;73.50
52543;DHT22;38449;52.696;6.186;2023-06-14T13:24:29;26.50;73.40
52543;DHT22;38449;52.696;6.186;2023-06-14T13:26:56;26.40;73.20
52543;DHT22;38449;52.696;6.186;2023-06-14T13:29:24;26.40;73.30
52543;DHT22;38449;52.696;6.186;2023-06-14T13:31:50;26.50;72.70
52543;DHT22;38449;52.696;6.186;2023-06-14T13:34:17;26.60;72.00
52543;DHT22;38449;52.696;6.186;2023-06-14T13:36:43;26.60;71.90
52543;DHT22;38449;52.696;6.186;2023-06-14T13:39:09;26.40;71.50
52543;DHT22;38449;52.696;6.186;2023-06-14T13:41:37;26.40;71.90
52543;DHT22;38449;52.696;6.186;2023-06-14T13:44:03;26.30;72.10
52543;DHT22;38449;52.696;6.186;2023-06-14T13:46:30;26.40;72.30
52543;DHT22;38449;52.696;6.186;2023-06-14T13:48:57;26.30;72.50
52543;DHT22;38449;52.696;6.186;2023-06-14T13:51:24;26.20;72.30
52543;DHT22;38449;52.696;6.186;2023-06-14T13:53:53;26.20;72.40
52543;DHT22;38449;52.696;6.186;2023-06-14T13:56:19;26.20;72.30
52543;DHT22;38449;52.696;6.186;2023-06-14T13:58:45;26.20;72.30
52543;DHT22;38449;52.696;6.186;2023-06-14T14:01:12;26.30;72.60
52543;DHT22;38449;52.696;6.186;2023-06-14T14:03:38;26.20;71.70
52543;DHT22;38449;52.696;6.186;2023-06-14T14:06:05;26.20;71.60
52543;DHT22;38449;52.696;6.186;2023-06-14T14:08:33;26.20;71.80
52543;DHT22;38449;52.696;6.186;2023-06-14T14:10:59;26.20;72.20
52543;DHT22;38449;52.696;6.186;2023-06-14T14:13:25;26.40;73.00
52543;DHT22;38449;52.696;6.186;2023-06-14T14:15:52;26.40;73.00
52543;DHT22;38449;52.696;6.186;2023-06-14T14:18:18;26.50;72.20
52543;DHT22;38449;52.696;6.186;2023-06-14T14:20:49;26.50;72.20
52543;DHT22;38449;52.696;6.186;2023-06-14T14:23:15;26.50;72.50
52543;DHT22;38449;52.696;6.186;2023-06-14T14:25:41;26.70;72.80
52543;DHT22;38449;52.696;6.186;2023-06-14T14:28:07;26.70;72.20
52543;DHT22;38449;52.696;6.186;2023-06-14T14:30:34;26.60;72.10
52543;DHT22;38449;52.696;6.186;2023-06-14T14:33:00;26.60;72.70
52543;DHT22;38449;52.696;6.186;2023-06-14T14:35:26;26.60;72.70
52543;DHT22;38449;52.696;6.186;2023-06-14T14:37:56;26.70;72.10
52543;DHT22;38449;52.696;6.186;2023-06-14T14:40:22;26.60;72.20
52543;DHT22;38449;52.696;6.186;2023-06-14T14:42:49;26.60;72.30
52543;DHT22;38449;52.696;6.186;2023-06-14T14:45:15;26.60;72.40
52543;DHT22;38449;52.696;6.186;2023-06-14T14:47:41;26.60;72.70
52543;DHT22;38449;52.696;6.186;2023-06-14T14:50:08;26.40;72.10
52543;DHT22;38449;52.696;6.186;2023-06-14T14:52:35;26.50;72.60
52543;DHT22;38449;52.696;6.186;2023-06-14T14:55:02;26.70;72.60
52543;DHT22;38449;52.696;6.186;2023-06-14T14:57:28;26.70;72.00
52543;DHT22;38449;52.696;6.186;2023-06-14T14:59:56;26.70;71.90
52543;DHT22;38449;52.696;6.186;2023-06-14T15:02:22;26.70;72.00
52543;DHT22;38449;52.696;6.186;2023-06-14T15:04:50;26.70;72.60
52543;DHT22;38449;52.696;6.186;2023-06-14T15:07:16;26.80;71.90
52543;DHT22;38449;52.696;6.186;2023-06-14T15:09:42;26.60;71.60
52543;DHT22;38449;52.696;6.186;2023-06-14T15:12:09;26.60;71.80
52543;DHT22;38449;52.696;6.186;2023-06-14T15:14:36;26.50;71.40
52543;DHT22;38449;52.696;6.186;2023-06-14T15:17:03;26.60;72.10
52543;DHT22;38449;52.696;6.186;2023-06-14T15:19:29;26.60;72.30
52543;DHT22;38449;52.696;6.186;2023-06-14T15:21:55;26.60;72.30
52543;DHT22;38449;52.696;6.186;2023-06-14T15:24:23;26.80;72.10
52543;DHT22;38449;52.696;6.186;2023-06-14T15:26:50;26.80;71.90
52543;DHT22;38449;52.696;6.186;2023-06-14T15:29:16;26.80;72.30
52543;DHT22;38449;52.696;6.186;2023-06-14T15:31:42;26.90;72.50
52543;DHT22;38449;52.696;6.186;2023-06-14T15:34:09;27.00;72.20
52543;DHT22;38449;52.696;6.186;2023-06-14T15:36:36;27.00;72.20
52543;DHT22;38449;52.696;6.186;2023-06-14T15:39:02;27.00;72.00
52543;DHT22;38449;52.696;6.186;2023-06-14T15:41:28;26.90;72.00
52543;DHT22;38449;52.696;6.186;2023-06-14T15:43:54;26.90;72.20
52543;DHT22;38449;52.696;6.186;2023-06-14T15:46:21;26.90;72.00
52543;DHT22;38449;52.696;6.186;2023-06-14T15:48:48;26.80;71.60
52543;DHT22;38449;52.696;6.186;2023-06-14T15:51:15;26.70;71.90
52543;DHT22;38449;52.696;6.186;2023-06-14T15:53:41;26.70;71.70
52543;DHT22;38449;52.696;6.186;2023-06-14T15:56:08;26.70;72.10